Map

Track Data

SID SEASON NUMBER BASIN SUBBASIN NAME ISO_TIME NATURE LAT LON WMO_WIND WMO_PRES WMO_AGENCY TRACK_TYPE DIST2LAND LANDFALL IFLAG USA_AGENCY USA_ATCF_ID USA_LAT USA_LON USA_RECORD USA_STATUS USA_WIND USA_PRES USA_SSHS USA_R34_NE USA_R34_SE USA_R34_SW USA_R34_NW USA_R50_NE USA_R50_SE USA_R50_SW USA_R50_NW USA_R64_NE USA_R64_SE USA_R64_SW USA_R64_NW USA_POCI USA_ROCI USA_RMW USA_EYE TOKYO_LAT TOKYO_LON TOKYO_GRADE TOKYO_WIND TOKYO_PRES TOKYO_R50_DIR TOKYO_R50_LONG TOKYO_R50_SHORT TOKYO_R30_DIR TOKYO_R30_LONG TOKYO_R30_SHORT TOKYO_LAND CMA_LAT CMA_LON CMA_CAT CMA_WIND CMA_PRES HKO_LAT HKO_LON HKO_CAT HKO_WIND HKO_PRES NEWDELHI_LAT NEWDELHI_LON NEWDELHI_GRADE NEWDELHI_WIND NEWDELHI_PRES NEWDELHI_CI NEWDELHI_DP NEWDELHI_POCI REUNION_LAT REUNION_LON REUNION_TYPE REUNION_WIND REUNION_PRES REUNION_TNUM REUNION_CI REUNION_RMW REUNION_R34_NE REUNION_R34_SE REUNION_R34_SW REUNION_R34_NW REUNION_R50_NE REUNION_R50_SE REUNION_R50_SW REUNION_R50_NW REUNION_R64_NE REUNION_R64_SE REUNION_R64_SW REUNION_R64_NW BOM_LAT BOM_LON BOM_TYPE BOM_WIND BOM_PRES BOM_TNUM BOM_CI BOM_RMW BOM_R34_NE BOM_R34_SE BOM_R34_SW BOM_R34_NW BOM_R50_NE BOM_R50_SE BOM_R50_SW BOM_R50_NW BOM_R64_NE BOM_R64_SE BOM_R64_SW BOM_R64_NW BOM_ROCI BOM_POCI BOM_EYE BOM_POS_METHOD BOM_PRES_METHOD NADI_LAT NADI_LON NADI_CAT NADI_WIND NADI_PRES WELLINGTON_LAT WELLINGTON_LON WELLINGTON_WIND WELLINGTON_PRES DS824_LAT DS824_LON DS824_STAGE DS824_WIND DS824_PRES TD9636_LAT TD9636_LON TD9636_STAGE TD9636_WIND TD9636_PRES TD9635_LAT TD9635_LON TD9635_WIND TD9635_PRES TD9635_ROCI NEUMANN_LAT NEUMANN_LON NEUMANN_CLASS NEUMANN_WIND NEUMANN_PRES MLC_LAT MLC_LON MLC_CLASS MLC_WIND MLC_PRES USA_GUST BOM_GUST BOM_GUST_PER REUNION_GUST REUNION_GUST_PER USA_SEAHGT USA_SEARAD_NE USA_SEARAD_SE USA_SEARAD_SW USA_SEARAD_NW STORM_SPEED STORM_DIR
1965012S11138 1965 5 SP EA NOT_NAMED 1965-01-12 05:30:00 NR -10.7000 138.300 998 bom main 228 210 ______O_______ -1 -10.7000 138.300 998 33 165
1965012S11138 1965 5 SP EA NOT_NAMED 1965-01-12 06:00:00 TS -10.9594 138.373 main 210 203 ______P__O____ -1 -10.7188 138.347 998 -10.7000 138.300 TC 35 998 9 138
1965012S11138 1965 5 SP EA NOT_NAMED 1965-01-12 09:00:00 TS -11.0847 138.651 main 228 228 ______P__P____ -1 -10.8263 138.636 998 -10.8094 138.585 TC 35 998 6 112
1965012S11138 1965 5 SP EA NOT_NAMED 1965-01-12 11:30:00 TS -11.1633 138.900 998 bom main 240 240 ______O__P____ -1 -10.9000 138.900 998 -10.8870 138.844 TC 35 998 6 108
1965012S11138 1965 5 SP EA NOT_NAMED 1965-01-12 12:00:00 TS -11.1806 138.956 main 250 250 ______P__O__O_ -1 -10.9120 138.957 998 -10.9000 138.900 TC 35 998 -10.9000 139.000 TC 35 998 7 96
1965012S11138 1965 5 SP EA NOT_NAMED 1965-01-12 15:00:00 TS -11.2067 139.309 main 279 245 ______P__P__P_ -1 -10.9643 139.323 998 -10.9580 139.266 TC 35 998 -10.8876 139.403 TC 35 998 7 93
1965012S11138 1965 5 SP EA NOT_NAMED 1965-01-12 18:00:00 TS -11.2141 139.685 main 245 207 ______P__P__O_ -1 -10.9900 139.707 998 -10.9878 139.660 TC 35 998 -10.9000 139.800 TC 35 998 7 90
1965012S11138 1965 5 SP EA NOT_NAMED 1965-01-12 21:00:00 TS -11.2119 140.053 main 207 182 ______P__P__P_ -1 -10.9988 140.077 998 -10.9986 140.049 TC 35 998 -10.9500 140.180 TC 35 998 7 95
1965012S11138 1965 5 SP EA NOT_NAMED 1965-01-12 23:00:00 TS -11.2608 140.270 998 bom main 182 167 ______O__PO_P_ -1 -11.0000 140.300 998 -11.0000 140.289 TC 35 998 -11.9000 140.200 1 -10.9864 140.403 TC 35 998 7 117
1965012S11138 1965 5 SP EA NOT_NAMED 1965-01-13 00:00:00 TS -11.3599 140.356 main 167 149 O_____P__OP_O_ jtwc_sh SH161965 -11.9000 140.300 -1 -11.0001 140.392 997 -11.0000 140.400 TC 35 998 -11.8989 140.272 1 -11.0000 140.500 TC 35 998 5 121
1965012S11138 1965 5 SP EA NOT_NAMED 1965-01-13 03:00:00 TS -11.4385 140.577 main 149 125 P_____P__PP_P_ SH161965 -11.9000 140.490 -1 -10.9929 140.635 997 -10.9988 140.664 TC 35 997 -11.8962 140.488 1 -11.0074 140.715 TC 35 997 4 108
1965012S11138 1965 5 SP EA NOT_NAMED 1965-01-13 06:00:00 TS -11.4956 140.784 main 125 109 O_____P__PP_O_ jtwc_sh SH161965 -11.9000 140.700 -1 -10.9844 140.848 996 -10.9922 140.888 TC 35 997 -11.8950 140.710 1 -11.0000 140.900 TC 35 997 4 101
1965012S11138 1965 5 SP EA NOT_NAMED 1965-01-13 09:00:00 TS -11.5236 141.017 main 109 93 P_____P__PP_P_ SH161965 -11.9000 140.943 -1 -10.9866 141.054 996 -10.9895 141.092 TC 35 996 -11.8967 140.940 1 -10.9925 141.143 TC 35 996 5 95
1965012S11138 1965 5 SP EA NOT_NAMED 1965-01-13 11:00:00 TS -11.5265 141.183 996 bom main 93 83 P_____O__PO_P_ SH161965 -11.9000 141.114 -1 -11.0000 141.200 996 -10.9944 141.229 TC 35 996 -11.9000 141.100 2 -10.9943 141.314 TC 35 996 5 92
1965012S11138 1965 5 SP EA NOT_NAMED 1965-01-13 12:00:00 TS -11.5313 141.267 main 83 58 O_____P__OP_O_ jtwc_sh SH161965 -11.9000 141.200 -1 -11.0166 141.285 996 -11.0000 141.300 TC 35 996 -11.9025 141.183 2 -11.0000 141.400 TC 35 996 5 95
1965012S11138 1965 5 SP EA NOT_NAMED 1965-01-13 15:00:00 TS -11.5555 141.511 main 58 39 P_____P__PP_P_ SH161965 -11.8925 141.443 -1 -11.0730 141.541 996 -11.0316 141.551 TC 35 996 -11.9145 141.440 2 -11.0425 141.650 TC 35 996 5 97
1965012S11138 1965 5 SP EA NOT_NAMED 1965-01-13 17:00:00 TS -11.5769 141.673 996 bom main 39 31 P_____O__PP_P_ SH161965 -11.8943 141.611 -1 -11.1000 141.700 996 4 -11.0608 141.722 TC 35 996 -11.9274 141.620 2 -11.0807 141.817 TC 35 996 5 97
1965012S11138 1965 5 SP EA NOT_NAMED 1965-01-13 18:00:00 TS -11.5856 141.753 main 31 10 O_____P__PP_O_ jtwc_sh SH161965 -11.9000 141.700 -1 -11.0862 141.753 996 -11.0775 141.807 TC 35 997 -11.9357 141.713 2 -11.1000 141.900 TC 35 996 5 98
1965012S11138 1965 5 SP EA NOT_NAMED 1965-01-13 21:00:00 TS -11.6242 142.010 main 10 0 P_____P__PP_P_ SH161965 -11.9425 141.985 -1 -11.0807 141.947 996 -11.1347 142.060 TC 35 997 -11.9692 142.000 2 -11.1500 142.150 TC 35 997 5 99
1965012S11138 1965 5 SP EA NOT_NAMED 1965-01-13 21:30:00 TS -11.6345 142.057 997 bom main 0 0 P_____O__PP_P_ SH161965 -11.9517 142.035 -1 -11.1000 142.000 997 -11.1451 142.101 TC 35 997 -11.9762 142.049 2 -11.1583 142.192 TC 35 997 6 104
1965012S11138 1965 5 SP EA NOT_NAMED 1965-01-13 23:00:00 TS -11.6722 142.205 998 bom main 0 0 P_____O__PO_P_ SH161965 -11.9807 142.192 -1 -11.2000 142.200 998 -11.1775 142.222 TC 35 997 -12.0000 142.200 1 -11.1833 142.317 TC 35 997 6 104
1965012S11138 1965 5 SP EA NOT_NAMED 1965-01-14 00:00:00 TS -11.6943 142.303 main 0 0 O_____P__OP_O_ jtwc_sh SH161965 -12.0000 142.300 -1 -11.2456 142.320 998 -11.2000 142.300 TC 35 998 -12.0146 142.304 1 -11.2000 142.400 TC 35 998 6 100
1965012S11138 1965 5 SP EA NOT_NAMED 1965-01-14 03:00:00 TS -11.7423 142.594 main 0 0 P_____P__PP_P_ SH161965 -12.0425 142.650 -1 -11.2911 142.610 998 -11.2596 142.506 TC 33 998 -12.0679 142.628 1 -11.2500 142.665 TC 32 998 6 100
1965012S11138 1965 5 SP EA NOT_NAMED 1965-01-14 06:00:00 TS -11.7926 142.867 main 0 0 O_____P__PP_O_ jtwc_sh SH161965 -12.1000 143.000 -1 -11.2829 142.808 999 -11.3273 142.700 TC 32 999 -12.1379 142.961 1 -11.3000 142.900 TC 30 999 5 102
1965012S11138 1965 5 SP EA NOT_NAMED 1965-01-14 08:00:00 TS -11.8358 143.028 1000 bom main 10 10 P_____O__PP_P_ SH161965 -12.1478 143.208 -1 -11.3000 142.900 1000 -11.3786 142.829 TC 31 999 -12.1953 143.181 1 -11.3224 143.005 TC 30 999 5 107
1965012S11138 1965 5 SP EA NOT_NAMED 1965-01-14 09:00:00 TS -11.8636 143.105 main 10 10 P_____P__PP_P_ SH161965 -12.1774 143.308 -1 -11.3292 142.935 1000 -11.4064 142.894 TC 31 999 -12.2276 143.290 1 -11.3349 143.050 TC 30 999 5 113
1965012S11138 1965 5 SP EA NOT_NAMED 1965-01-14 11:00:00 TS -11.9297 143.256 1000 bom main 15 10 P_____O__PO_P_ SH161965 -12.2526 143.503 -1 -11.4000 143.000 1000 -11.4670 143.029 TC 30 999 -12.3000 143.500 1 -11.3719 143.144 TC 30 999 5 115
1965012S11138 1965 5 SP EA NOT_NAMED 1965-01-14 12:00:00 TS -11.9687 143.336 main 10 21 O_____P__OP_O_ jtwc_sh SH161965 -12.3000 143.600 -1 -11.4395 143.050 1000 -11.5000 143.100 TC 30 1000 -12.3411 143.604 1 -11.4000 143.200 TC 30 1000 6 119
1965012S11138 1965 5 SP EA NOT_NAMED 1965-01-14 15:00:00 TS -12.1140 143.603 main 44 44 P_____P__PP_P_ SH161965 -12.5000 143.915 -1 -11.5779 143.254 1000 -11.6106 143.336 TC 28 1000 -12.4817 143.910 1 -11.5350 143.435 TC 27 1000 6 120
1965012S11138 1965 5 SP EA NOT_NAMED 1965-01-14 18:00:00 TS -12.2726 143.871 main 63 63 O_____P__PP_O_ jtwc_sh SH161965 -12.7000 144.200 -1 -11.7349 143.517 1001 -11.7350 143.585 TC 27 1001 -12.6381 144.195 1 -11.7000 143.700 TC 25 1001 6 121
1965012S11138 1965 5 SP EA NOT_NAMED 1965-01-14 21:00:00 TS -12.4119 144.112 main 79 79 P_____P__PP_P_ SH161965 -12.8075 144.423 -1 -11.8966 143.807 1001 -11.8669 143.842 TC 26 1001 -12.7978 144.450 1 -11.8575 143.950 TC 25 1001 5 121
1965012S11138 1965 5 SP EA NOT_NAMED 1965-01-14 23:00:00 TS -12.4996 144.263 1002 bom main 97 97 P_____O__PO_P_ SH161965 -12.8662 144.544 -1 -12.0000 144.000 1002 -11.9559 144.014 TC 25 1001 -12.9000 144.600 1 -11.9557 144.117 TC 25 1001 5 121
1965012S11138 1965 5 SP EA NOT_NAMED 1965-01-15 00:00:00 TS -12.5419 144.336 main 97 97 O_____P__OP_O_ jtwc_sh SH161965 -12.9000 144.600 -1 -12.0475 144.086 1002 -12.0000 144.100 TC 25 1002 -12.9462 144.667 1 -12.0000 144.200 TC 25 1002 5 121
1965012S11138 1965 5 SP EA NOT_NAMED 1965-01-15 03:00:00 TS -12.6723 144.558 main 121 121 P_____P__PP_P_ SH161965 -13.0500 144.758 -1 -12.1854 144.344 1002 -12.1331 144.358 TC 25 1002 -13.0798 144.840 1 -12.1000 144.450 TC 25 1002 5 121
1965012S11138 1965 5 SP EA NOT_NAMED 1965-01-15 06:00:00 TS -12.7979 144.771 main 141 141 O_____P__PP_O_ jtwc_sh SH161965 -13.2000 144.900 -1 -12.3142 144.599 1002 -12.2650 144.615 TC 25 1002 -13.2061 144.983 1 -12.2000 144.700 TC 25 1002 5 121
1965012S11138 1965 5 SP EA NOT_NAMED 1965-01-15 09:00:00 TS -12.9168 144.971 main 161 155 P_____P__PP_P_ SH161965 -13.3075 145.050 -1 -12.4307 144.845 1002 -12.3894 144.864 TC 25 1002 -13.3249 145.113 1 -12.3575 144.957 TC 25 1002 4 121
1965012S11138 1965 5 SP EA NOT_NAMED 1965-01-15 11:00:00 TS -12.9899 145.098 1003 bom main 159 159 P_____O__PO_P_ SH161965 -13.3693 145.150 -1 -12.5000 145.000 1003 -12.4650 145.023 TC 25 1002 -13.4000 145.200 1 -12.4588 145.122 TC 25 1002 4 120
1965012S11138 1965 5 SP EA NOT_NAMED 1965-01-15 12:00:00 TS -13.0242 145.160 main 164 154 O_____P__OP_O_ jtwc_sh SH161965 -13.4000 145.200 -1 -12.5317 145.073 1003 -12.5000 145.100 TC 25 1003 -13.4379 145.248 1 -12.5000 145.200 TC 25 1003 4 118
1965012S11138 1965 5 SP EA NOT_NAMED 1965-01-15 15:00:00 TS -13.1156 145.341 main 159 156 P_____P__PP_P_ SH161965 -13.5000 145.343 -1 -12.6157 145.283 1003 -12.5893 145.314 TC 25 1003 -13.5466 145.389 1 -12.5575 145.408 TC 25 1003 4 117
1965012S11138 1965 5 SP EA NOT_NAMED 1965-01-15 18:00:00 TS -13.2001 145.518 main 163 163 O_____P__PP_O_ jtwc_sh SH161965 -13.6000 145.500 -1 -12.6881 145.480 1003 -12.6649 145.515 TC 25 1003 -13.6478 145.534 1 -12.6000 145.600 TC 25 1003 4 117
1965012S11138 1965 5 SP EA NOT_NAMED 1965-01-15 21:00:00 TS -13.2900 145.699 main 171 171 P_____P__PP_P_ SH161965 -13.7000 145.693 -1 -12.7552 145.672 1003 -12.7330 145.708 TC 25 1003 -13.7416 145.689 1 -12.7000 145.800 TC 25 1003 4 117
1965012S11138 1965 5 SP EA NOT_NAMED 1965-01-15 23:00:00 TS -13.3496 145.825 1003 bom main 178 171 P_____O__PO_P_ SH161965 -13.7667 145.831 -1 -12.8000 145.800 1003 -12.7774 145.836 TC 25 1003 -13.8000 145.800 2 -12.7697 145.933 TC 25 1003 4 116
1965012S11138 1965 5 SP EA NOT_NAMED 1965-01-16 00:00:00 TS -13.3798 145.890 main 179 179 O_____P__OP_O_ jtwc_sh SH161965 -13.8000 145.900 -1 -12.8274 145.868 1002 -12.8000 145.900 TC 25 1003 -13.8308 145.861 2 -12.8000 146.000 TC 25 1003 4 114
1965012S11138 1965 5 SP EA NOT_NAMED 1965-01-16 03:00:00 TS -13.4682 146.096 main 184 184 P_____P__PP_P_ SH161965 -13.9075 146.100 -1 -12.9108 146.072 1002 -12.8831 146.104 TC 25 1002 -13.9188 146.056 2 -12.8500 146.200 TC 25 1002 4 113
1965012S11138 1965 5 SP EA NOT_NAMED 1965-01-16 06:00:00 TS -13.5505 146.306 main 187 187 O_____P__PP_O_ jtwc_sh SH161965 -14.0000 146.300 -1 -12.9909 146.275 1002 -12.9650 146.307 TC 25 1002 -13.9976 146.261 2 -12.9000 146.400 TC 25 1002 4 112
1965012S11138 1965 5 SP EA NOT_NAMED 1965-01-16 09:00:00 TS -13.6289 146.512 main 202 202 P_____P__PP_P_ SH161965 -14.0575 146.508 -1 -13.0614 146.472 1002 -13.0394 146.507 TC 25 1002 -14.0641 146.467 2 -13.0075 146.607 TC 25 1002 4 110
1965012S11138 1965 5 SP EA NOT_NAMED 1965-01-16 11:00:00 TS -13.6725 146.642 1002 bom main 202 209 P_____O__PO_P_ SH161965 -14.0860 146.639 -1 -13.1000 146.600 1002 -13.0817 146.637 TC 25 1002 -14.1000 146.600 1 -13.0755 146.739 TC 25 1002 4 109
1965012S11138 1965 5 SP EA NOT_NAMED 1965-01-16 12:00:00 TS -13.6907 146.703 main 209 209 O_____P__OP_O_ jtwc_sh SH161965 -14.1000 146.700 -1 -13.1175 146.660 1002 -13.1000 146.700 TC 25 1002 -14.1175 146.659 1 -13.1000 146.800 TC 25 1002 3 105
1965012S11138 1965 5 SP EA NOT_NAMED 1965-01-16 15:00:00 TS -13.7292 146.865 main 225 225 P_____P__PP_P_ SH161965 -14.1575 146.850 -1 -13.1599 146.836 1002 -13.1474 146.878 TC 25 1002 -14.1599 146.830 1 -13.1075 146.950 TC 25 1002 3 101
1965012S11138 1965 5 SP EA NOT_NAMED 1965-01-16 18:00:00 TS -13.7507 147.022 main 227 227 O_____P__PP_O_ jtwc_sh SH161965 -14.2000 147.000 -1 -13.1874 147.007 1002 -13.1799 147.050 TC 25 1002 -14.1873 146.999 1 -13.1000 147.100 TC 25 1002 3 97
1965012S11138 1965 5 SP EA NOT_NAMED 1965-01-16 21:00:00 TS -13.7692 147.198 main 244 244 P_____P__PP_P_ SH161965 -14.2150 147.193 -1 -13.1999 147.180 1002 -13.1974 147.222 TC 25 1002 -14.1999 147.175 1 -13.1575 147.292 TC 25 1002 4 94
1965012S11138 1965 5 SP EA NOT_NAMED 1965-01-16 23:00:00 TS -13.7728 147.324 1002 bom main 253 253 P_____O__PO_P_ SH161965 -14.2083 147.331 -1 -13.2000 147.300 1002 -13.2008 147.340 TC 25 1002 -14.2000 147.300 1 -13.1921 147.431 TC 25 1002 4 91
1965012S11138 1965 5 SP EA NOT_NAMED 1965-01-17 00:00:00 TS -13.7710 147.390 main 263 263 O_____P__OP_O_ jtwc_sh SH161965 -14.2000 147.400 -1 -13.1984 147.362 1002 -13.2000 147.400 TC 25 1002 -14.1984 147.368 1 -13.2000 147.500 TC 25 1002 4 84
1965012S11138 1965 5 SP EA NOT_NAMED 1965-01-17 03:00:00 TS -13.7445 147.592 main 287 287 P_____P__PP_P_ SH161965 -14.1500 147.593 -1 -13.1824 147.553 1002 -13.1893 147.589 TC 25 1002 -14.1825 147.584 1 -13.1575 147.700 TC 25 1002 4 82
1965012S11138 1965 5 SP EA NOT_NAMED 1965-01-17 06:00:00 TS -13.7107 147.807 main 306 306 O_____P__PP_O_ jtwc_sh SH161965 -14.1000 147.800 -1 -13.1548 147.752 1002 -13.1649 147.785 TC 25 1002 -14.1549 147.812 1 -13.1000 147.900 TC 25 1002 4 84
1965012S11138 1965 5 SP EA NOT_NAMED 1965-01-17 09:00:00 TS -13.6978 148.036 main 325 325 P_____P__PP_P_ SH161965 -14.1000 148.050 -1 -13.1219 147.958 1002 -13.1331 147.989 TC 25 1002 -14.1219 148.045 1 -13.1000 148.100 TC 25 1002 4 87
1965012S11138 1965 5 SP EA NOT_NAMED 1965-01-17 11:00:00 TS -13.6894 148.189 1002 bom main 344 344 P_____O__PO_P_ SH161965 -14.1031 148.220 -1 -13.1000 148.100 1002 -13.1108 148.129 TC 25 1002 -14.1000 148.200 1 -13.1031 148.233 TC 25 1002 4 86
1965012S11138 1965 5 SP EA NOT_NAMED 1965-01-17 12:00:00 TS -13.6823 148.263 main 354 354 O_____P__OP_O_ jtwc_sh SH161965 -14.1000 148.300 -1 -13.0867 148.170 1002 -13.1000 148.200 TC 25 1002 -14.0892 148.274 1 -13.1000 148.300 TC 25 1002 4 79
1965012S11138 1965 5 SP EA NOT_NAMED 1965-01-17 15:00:00 TS -13.6370 148.471 main 368 360 P_____P__PP_P_ SH161965 -14.0499 148.500 -1 -13.0449 148.387 1002 -13.0587 148.414 TC 25 1002 -14.0557 148.495 1 -13.0500 148.493 TC 25 1002 4 78
1965012S11138 1965 5 SP EA NOT_NAMED 1965-01-17 18:00:00 TS -13.5936 148.680 main 360 353 O_____P__PP_O_ jtwc_sh SH161965 -14.0000 148.700 -1 -13.0097 148.611 1002 -13.0199 148.635 TC 25 1002 -14.0256 148.717 1 -13.0000 148.700 TC 25 1002 4 82
1965012S11138 1965 5 SP EA NOT_NAMED 1965-01-17 21:00:00 TS -13.5797 148.910 main 353 346 P_____P__PP_P_ SH161965 -13.9925 148.942 -1 -12.9938 148.842 1002 -12.9962 148.864 TC 25 1002 -14.0052 148.944 1 -12.9850 148.943 TC 25 1002 5 88
1965012S11138 1965 5 SP EA NOT_NAMED 1965-01-17 23:00:00 TS -13.5827 149.070 1002 bom main 346 342 P_____O__PO_P_ SH161965 -13.9974 149.114 -1 -13.0000 149.000 1002 -12.9949 149.020 TC 25 1002 -14.0000 149.100 1 -12.9917 149.114 TC 25 1002 5 92
1965012S11138 1965 5 SP EA NOT_NAMED 1965-01-18 00:00:00 TS -13.5867 149.152 main 342 336 O_____P__OP_O_ jtwc_sh SH161965 -14.0000 149.200 -1 -13.0103 149.080 1002 -13.0000 149.100 TC 25 1002 -13.9967 149.181 1 -13.0000 149.200 TC 25 1002 5 93
1965012S11138 1965 5 SP EA NOT_NAMED 1965-01-18 03:00:00 TS -13.6013 149.399 main 336 329 P_____P__PP_P_ SH161965 -13.9925 149.450 -1 -13.0629 149.325 1002 -13.0381 149.343 TC 25 1002 -13.9958 149.431 1 -13.0350 149.450 TC 25 1002 5 96
1965012S11138 1965 5 SP EA NOT_NAMED 1965-01-18 06:00:00 TS -13.6370 149.651 main 329 329 O_____P__PP_O_ jtwc_sh SH161965 -14.0000 149.700 -1 -13.1405 149.577 1002 -13.1049 149.592 TC 25 1002 -14.0132 149.685 1 -13.1000 149.700 TC 25 1002 5 101
1965012S11138 1965 5 SP EA NOT_NAMED 1965-01-18 09:00:00 TS -13.6962 149.904 main 337 336 P_____P__PP_P_ SH161965 -14.0350 149.958 -1 -13.2338 149.831 1002 -13.1943 149.846 TC 25 1002 -14.0552 149.937 1 -13.1925 149.950 TC 25 1002 5 105
1965012S11138 1965 5 SP EA NOT_NAMED 1965-01-18 11:00:00 TS -13.7495 150.071 1003 bom main 336 347 P_____O__PO_P_ SH161965 -14.0750 150.122 -1 -13.3000 150.000 1003 -13.2634 150.015 TC 25 1002 -14.1000 150.100 1 -13.2640 150.117 TC 25 1002 5 109
1965012S11138 1965 5 SP EA NOT_NAMED 1965-01-18 12:00:00 TS -13.7783 150.152 main 347 347 O_____P__OP_O_ jtwc_sh SH161965 -14.1000 150.200 -1 -13.3250 150.086 1002 -13.3000 150.100 TC 25 1003 -14.1233 150.180 1 -13.3000 150.200 TC 25 1003 5 112
1965012S11138 1965 5 SP EA NOT_NAMED 1965-01-18 15:00:00 TS -13.8722 150.389 main 358 358 P_____P__PP_P_ SH161965 -14.1774 150.400 -1 -13.4037 150.344 1002 -13.3984 150.358 TC 25 1002 -14.2133 150.413 1 -13.4000 150.450 TC 25 1002 5 115
1965012S11138 1965 5 SP EA NOT_NAMED 1965-01-18 18:00:00 TS -13.9915 150.622 main 370 370 O_____P__PP_O_ jtwc_sh SH161965 -14.3000 150.600 -1 -13.4948 150.599 1002 -13.5125 150.615 TC 25 1002 -14.3333 150.640 1 -13.5000 150.700 TC 25 1002 5 120
1965012S11138 1965 5 SP EA NOT_NAMED 1965-01-18 21:00:00 TS -14.1334 150.861 main 384 384 P_____P__PP_P_ SH161965 -14.4850 150.850 -1 -13.6079 150.845 1002 -13.6453 150.864 TC 25 1002 -14.4833 150.858 1 -13.5850 150.958 TC 25 1002 6 123
1965012S11138 1965 5 SP EA NOT_NAMED 1965-01-18 23:00:00 TS -14.2431 151.017 1002 bom main 397 408 P_____O__PO_P_ SH161965 -14.6281 151.020 -1 -13.7000 151.000 1002 -13.7458 151.023 TC 25 1002 -14.6000 151.000 1 -13.6552 151.122 TC 25 1002 6 127
1965012S11138 1965 5 SP EA NOT_NAMED 1965-01-19 00:00:00 TS -14.3018 151.092 main 410 410 O_____P__OP_O_ jtwc_sh SH161965 -14.7000 151.100 -1 -13.7495 151.072 1002 -13.8000 151.100 TC 25 1002 -14.6628 151.069 1 -13.7000 151.200 TC 25 1002 6 131
1965012S11138 1965 5 SP EA NOT_NAMED 1965-01-19 03:00:00 TS -14.4876 151.304 main 436 436 P_____P__PP_P_ SH161965 -14.8925 151.308 -1 -13.9186 151.277 1002 -13.9661 151.310 TC 25 1002 -14.8737 151.269 1 -13.8850 151.408 TC 25 1002 6 134
1965012S11138 1965 5 SP EA NOT_NAMED 1965-01-19 06:00:00 TS -14.6968 151.506 main 463 463 O_____P__PP_O_ jtwc_sh SH161965 -15.1000 151.500 -1 -14.1161 151.472 1002 -14.1548 151.508 TC 25 1002 -15.1064 151.465 1 -14.1000 151.600 TC 25 1002 6 139
1965012S11138 1965 5 SP EA NOT_NAMED 1965-01-19 09:00:00 TS -14.9264 151.706 main 490 490 P_____P__PP_P_ SH161965 -15.3500 151.700 -1 -14.3390 151.666 1002 -14.3661 151.701 TC 25 1002 -15.3451 151.664 1 -14.2925 151.800 TC 25 1002 6 140
1965012S11138 1965 5 SP EA NOT_NAMED 1965-01-19 11:00:00 TS -15.0858 151.838 1002 bom main 515 515 P_____O__PO_P_ SH161965 -15.5197 151.833 -1 -14.5000 151.800 1002 -14.5195 151.833 TC 25 1002 -15.5000 151.800 1 -14.4276 151.933 TC 25 1002 6 141
1965012S11138 1965 5 SP EA NOT_NAMED 1965-01-19 12:00:00 TS -15.1648 151.904 main 529 529 O_____P__OP_O_ jtwc_sh SH161965 -15.6000 151.900 -1 -14.5865 151.866 1002 -14.6000 151.900 TC 25 1002 -15.5675 151.864 1 -14.5000 152.000 TC 25 1002 6 141
1965012S11138 1965 5 SP EA NOT_NAMED 1965-01-19 15:00:00 TS -15.4007 152.099 main 557 557 P_____P__PP_P_ SH161965 -15.8075 152.093 -1 -14.8644 152.065 1002 -14.8695 152.094 TC 25 1002 -15.7634 152.060 1 -14.7350 152.193 TC 25 1002 6 141
1965012S11138 1965 5 SP EA NOT_NAMED 1965-01-19 18:00:00 TS -15.6382 152.307 main 585 596 O_____P__PP_O_ jtwc_sh SH161965 -16.0000 152.300 -1 -15.1534 152.279 1002 -15.1571 152.298 TC 25 1002 -15.9569 152.271 1 -15.0000 152.400 TC 25 1002 6 139
1965012S11138 1965 5 SP EA NOT_NAMED 1965-01-19 21:00:00 TS -15.8768 152.532 main 624 624 P_____P__PP_P_ SH161965 -16.1924 152.528 -1 -15.4314 152.519 1002 -15.4412 152.528 TC 25 1002 -16.1576 152.514 1 -15.3149 152.627 TC 25 1002 7 136
1965012S11138 1965 5 SP EA NOT_NAMED 1965-01-19 23:00:00 TS -16.0319 152.704 1002 bom main 633 624 P_____O__PO_P_ SH161965 -16.3276 152.703 -1 -15.6000 152.700 1002 -15.6179 152.704 TC 25 1002 -16.3000 152.700 1 -15.5145 152.803 TC 25 1002 7 132
1965012S11138 1965 5 SP EA NOT_NAMED 1965-01-20 00:00:00 TS -16.1081 152.800 main 631 629 O_____P__OP_O_ jtwc_sh SH161965 -16.4000 152.800 -1 -15.6729 152.795 1002 -15.7000 152.800 TC 25 1002 -16.3840 152.804 1 -15.6000 152.900 TC 25 1002 8 126
1965012S11138 1965 5 SP EA NOT_NAMED 1965-01-20 03:00:00 TS -16.3268 153.127 main 637 637 P_____P__PP_P_ SH161965 -16.6425 153.128 -1 -15.8702 153.106 1002 -15.9171 153.124 TC 25 1002 -16.6502 153.147 1 -15.7650 153.235 TC 25 1002 8 123
1965012S11138 1965 5 SP EA NOT_NAMED 1965-01-20 06:00:00 TS -16.5370 153.496 main 653 645 O_____P__PP_O_ jtwc_sh SH161965 -16.9000 153.500 -1 -16.0425 153.452 1002 -16.0984 153.492 TC 25 1002 -16.9179 153.527 1 -15.9000 153.600 TC 25 1002 8 122
1965012S11138 1965 5 SP EA NOT_NAMED 1965-01-20 09:00:00 TS -16.7723 153.879 main 665 665 P_____P__PP_P_ SH161965 -17.1725 153.892 -1 -16.1993 153.831 1002 -16.2555 153.889 TC 25 1002 -17.1623 153.928 1 -16.0999 153.935 TC 25 1002 9 122
1965012S11138 1965 5 SP EA NOT_NAMED 1965-01-20 11:00:00 TS -16.9269 154.145 1003 bom main 675 684 P_____O__PO_P_ SH161965 -17.3338 154.164 -1 -16.3000 154.100 1003 -16.3525 154.162 TC 25 1002 -17.3000 154.200 1 -16.2363 154.172 TC 25 1002 9 115
1965012S11138 1965 5 SP EA NOT_NAMED 1965-01-20 12:00:00 TS -16.9562 154.282 main 687 687 O_____P__OP_O_ jtwc_sh SH161965 -17.4000 154.300 -1 -16.3501 154.239 1003 -16.4000 154.300 TC 25 1003 -17.3588 154.335 1 -16.3000 154.300 TC 25 1003 8 103
1965012S11138 1965 5 SP EA NOT_NAMED 1965-01-20 15:00:00 TS -17.0547 154.704 main 717 717 P_____P___P_P_ SH161965 -17.5301 154.703 -1 -16.5006 154.672 1003 TC -17.4978 154.739 1 -16.4575 154.735 TC 22 1003 8 98
1965012S11138 1965 5 SP EA NOT_NAMED 1965-01-20 18:00:00 TS -17.0718 155.145 main 750 756 O_____P___P_O_ jtwc_sh SH161965 -17.6000 155.100 -1 -16.6509 155.124 1004 TC -17.5935 155.138 1 -16.6000 155.200 TC 20 1004 9 88
1965012S11138 1965 5 SP EA NOT_NAMED 1965-01-20 21:00:00 TS -17.0240 155.602 main 792 790 ______P___P_P_ SH161965 -1 -16.8007 155.588 1004 TC -17.6618 155.536 1 -16.7476 155.655 TC 20 1004 9 90
1965012S11138 1965 5 SP EA NOT_NAMED 1965-01-20 23:00:00 TS -17.0745 155.901 1005 bom main 804 804 ______O___O_P_ SH161965 -1 -16.9000 155.900 1005 TC -17.7000 155.800 1 -16.8490 155.952 TC 20 1004 10 75
1965012S11138 1965 5 SP EA NOT_NAMED 1965-01-21 00:00:00 TS -16.9000 156.100 main 835 ____________O_ -1 1 -16.9000 156.100 TC 20 1005 16 47

Digital Typhoon Data and Search

About IBTrACS Database

This database is a web-friendly format of International Best Track Archive for Climate Stewardship (IBTrACS), a global best track data archive curated by NOAA dating back to 1842.

Updated: 2021-12-08